createdAt,value
2018-11-11T00:04:58.853Z,18.27
2018-11-11T00:10:53.845Z,22.57
2018-11-11T00:16:48.873Z,22.5
2018-11-11T00:22:43.887Z,42.89
2018-11-11T00:28:38.926Z,15.68
2018-11-11T00:34:33.842Z,16.44
2018-11-11T00:40:28.866Z,13.5
2018-11-11T00:46:23.840Z,10.84
2018-11-11T00:52:18.856Z,10.8
2018-11-11T00:58:13.892Z,12.98
2018-11-11T01:04:08.872Z,11.68
2018-11-11T01:10:03.911Z,11.5
2018-11-11T01:15:58.888Z,11.49
2018-11-11T01:21:53.900Z,12.03
2018-11-11T01:27:48.880Z,14.12
2018-11-11T01:33:43.896Z,12.89
2018-11-11T01:39:38.911Z,13.02
2018-11-11T01:45:33.900Z,14.18
2018-11-11T01:51:28.896Z,14.06
2018-11-11T01:57:23.909Z,13.2
2018-11-11T02:03:18.891Z,12.74
2018-11-11T02:09:13.934Z,13.69
2018-11-11T02:15:08.929Z,12.59
2018-11-11T02:21:03.929Z,12.79
2018-11-11T02:26:58.930Z,12.77
2018-11-11T02:32:53.934Z,14.94
2018-11-11T02:38:48.979Z,13.73
2018-11-11T02:44:43.939Z,14.71
2018-11-11T02:50:38.924Z,12.68
2018-11-11T02:56:33.956Z,13.13
2018-11-11T03:02:28.953Z,13.19
2018-11-11T03:08:23.946Z,13.96
2018-11-11T03:14:18.960Z,14.4
2018-11-11T03:20:13.966Z,14.45
2018-11-11T03:26:08.945Z,16.02
2018-11-11T03:32:03.937Z,15.11
2018-11-11T03:37:58.955Z,11.63
2018-11-11T03:43:53.953Z,12.44
2018-11-11T03:49:48.945Z,11.71
2018-11-11T03:55:43.957Z,10.85
2018-11-11T04:01:38.997Z,12
2018-11-11T04:07:33.979Z,12.82
2018-11-11T04:13:28.961Z,12.84
2018-11-11T04:19:23.984Z,12.9
2018-11-11T04:25:19.011Z,10.91
2018-11-11T04:31:13.980Z,12.4
2018-11-11T04:37:08.996Z,11.92
2018-11-11T04:43:04.029Z,11.06
2018-11-11T04:48:58.974Z,10.49
2018-11-11T04:54:53.999Z,10.33
2018-11-11T05:00:48.999Z,11.03
2018-11-11T05:06:44.001Z,11.46
2018-11-11T05:12:39.030Z,11.3
2018-11-11T05:18:34.040Z,13.04
2018-11-11T05:24:29.032Z,11.64
2018-11-11T05:30:24.021Z,12.21
2018-11-11T05:36:19.023Z,12.55
2018-11-11T05:42:14.031Z,13.07
2018-11-11T05:48:09.056Z,13.26
2018-11-11T05:54:04.031Z,13.49
2018-11-11T05:59:59.011Z,12.95
2018-11-11T06:05:54.028Z,13.73
2018-11-11T06:11:49.031Z,12.94
2018-11-11T06:17:44.123Z,13.64
2018-11-11T06:23:39.040Z,14.13
2018-11-11T06:29:34.040Z,14.36
2018-11-11T06:35:29.062Z,15.29
2018-11-11T06:41:24.067Z,14.76
2018-11-11T06:47:19.094Z,15.93
2018-11-11T06:53:14.058Z,14.17
2018-11-11T06:59:09.073Z,14.53
2018-11-11T07:05:04.061Z,14.05
2018-11-11T07:10:59.118Z,12.91
2018-11-11T07:16:54.151Z,12.27
2018-11-11T07:22:49.096Z,12.28
2018-11-11T07:28:44.078Z,12.57
2018-11-11T07:34:39.075Z,12.76
2018-11-11T07:40:34.067Z,13.1
2018-11-11T07:46:29.084Z,12.64
2018-11-11T07:52:24.094Z,11.76
2018-11-11T07:58:19.129Z,12.77
2018-11-11T08:04:14.094Z,12.61
2018-11-11T08:10:09.103Z,12.42
2018-11-11T08:16:04.100Z,12.52
2018-11-11T08:21:59.155Z,12.43
2018-11-11T08:27:54.117Z,12.75
2018-11-11T08:33:49.107Z,12.32
2018-11-11T08:39:44.124Z,12.45
2018-11-11T08:45:39.173Z,11.81
2018-11-11T08:51:34.135Z,12.77
2018-11-11T08:57:29.126Z,13.98
2018-11-11T09:03:24.180Z,14.35
2018-11-11T09:09:19.137Z,13.04
2018-11-11T09:15:14.130Z,14.16
2018-11-11T09:21:09.162Z,14.64
2018-11-11T09:27:04.151Z,15.23
2018-11-11T09:32:59.138Z,15.66
2018-11-11T09:38:54.176Z,15.98
2018-11-11T09:44:49.141Z,16.53
2018-11-11T09:50:44.140Z,16.16
2018-11-11T09:56:39.162Z,15.37
2018-11-11T10:02:34.181Z,14.22
2018-11-11T10:08:29.193Z,15.66
2018-11-11T10:14:24.156Z,17.22
2018-11-11T10:20:19.275Z,24.51
2018-11-11T10:26:14.235Z,18.89
2018-11-11T10:32:09.198Z,17.12
2018-11-11T10:38:04.168Z,14.26
2018-11-11T10:43:59.183Z,14.44
2018-11-11T10:49:54.202Z,14.47
2018-11-11T10:55:49.189Z,17.8
2018-11-11T11:01:44.220Z,14.87
2018-11-11T11:07:39.194Z,14.24
2018-11-11T11:13:34.336Z,14.36
2018-11-11T11:19:29.205Z,16.21
2018-11-11T11:25:24.258Z,15.76
2018-11-11T11:31:19.269Z,15.87
2018-11-11T11:37:14.249Z,17
2018-11-11T11:43:09.200Z,17.59
2018-11-11T11:49:04.285Z,17.35
2018-11-11T11:54:59.201Z,17.16
2018-11-11T12:00:54.237Z,32.54
2018-11-11T12:06:49.233Z,23.31
2018-11-11T12:12:44.249Z,19.64
2018-11-11T12:18:39.318Z,20.85
2018-11-11T12:24:34.251Z,18.25
2018-11-11T12:30:29.398Z,18.69
2018-11-11T12:36:24.250Z,17.13
2018-11-11T12:42:19.234Z,17.93
2018-11-11T12:48:14.250Z,19.53
2018-11-11T12:54:09.251Z,18.21
2018-11-11T13:00:04.442Z,19.07
2018-11-11T13:05:59.297Z,19.55
2018-11-11T13:11:54.369Z,19.47
2018-11-11T13:17:49.267Z,20.09
2018-11-11T13:23:44.269Z,24.13
2018-11-11T13:29:39.269Z,24.4
2018-11-11T13:35:34.266Z,22.34
2018-11-11T13:41:29.268Z,20.96
2018-11-11T13:47:24.285Z,23.39
2018-11-11T13:53:19.285Z,19.55
2018-11-11T13:59:14.270Z,20.71
2018-11-11T14:05:09.309Z,22.05
2018-11-11T14:11:04.392Z,23.42
2018-11-11T14:16:59.298Z,22.54
2018-11-11T14:22:54.285Z,21.43
2018-11-11T14:28:49.382Z,24.46
2018-11-11T14:34:44.314Z,23.77
2018-11-11T14:40:39.287Z,25.68
2018-11-11T14:46:34.309Z,26.57
2018-11-11T14:52:29.426Z,25.16
2018-11-11T14:58:24.344Z,26.06
2018-11-11T15:04:19.352Z,25.18
2018-11-11T15:10:14.368Z,26.8
2018-11-11T15:16:09.329Z,25.9
2018-11-11T15:22:04.325Z,27.15
2018-11-11T15:27:59.318Z,28.84
2018-11-11T15:33:54.331Z,29.07
2018-11-11T15:39:49.350Z,29.08
2018-11-11T15:45:44.328Z,24.14
2018-11-11T15:51:39.333Z,23.1
2018-11-11T15:57:34.365Z,21.33
2018-11-11T16:03:29.366Z,14.64
2018-11-11T16:09:24.353Z,18.39
2018-11-11T16:15:19.353Z,16.44
2018-11-11T16:21:14.364Z,15.92
2018-11-11T16:27:09.374Z,13.67
2018-11-11T16:33:04.391Z,14.5
2018-11-11T16:38:59.360Z,14.55
2018-11-11T16:44:54.399Z,15.86
2018-11-11T16:50:49.370Z,15.54
2018-11-11T16:56:44.376Z,15.71
2018-11-11T17:02:39.378Z,17.26
2018-11-11T17:08:34.382Z,20.39
2018-11-11T17:14:29.396Z,30.25
2018-11-11T17:20:24.521Z,37.36
2018-11-11T17:26:19.389Z,27.29
2018-11-11T17:32:14.395Z,37.29
2018-11-11T17:38:09.393Z,35.4
2018-11-11T17:44:04.424Z,33.15
2018-11-11T17:49:59.426Z,31.26
2018-11-11T17:55:54.445Z,27.37
2018-11-11T18:01:49.407Z,23.91
2018-11-11T18:07:44.410Z,21.93
2018-11-11T18:13:39.449Z,19.45
2018-11-11T18:19:34.415Z,22.58
2018-11-11T18:25:29.432Z,23.01
2018-11-11T18:31:24.469Z,23.83
2018-11-11T18:37:19.434Z,25.2
2018-11-11T18:43:14.427Z,24.44
2018-11-11T18:49:09.457Z,26.8
2018-11-11T18:55:04.459Z,27.11
2018-11-11T19:00:59.453Z,28.42
2018-11-11T19:06:54.520Z,24.29
2018-11-11T19:12:49.524Z,25.37
2018-11-11T19:18:44.580Z,26.14
2018-11-11T19:24:39.594Z,25.35
2018-11-11T19:30:34.530Z,22.87
2018-11-11T19:36:29.529Z,21.47
2018-11-11T19:42:24.468Z,20.41
2018-11-11T19:48:19.591Z,22.47
2018-11-11T19:54:14.553Z,22.57
2018-11-11T20:00:09.477Z,24.19
2018-11-11T20:06:04.579Z,23.15
2018-11-11T20:11:59.498Z,24.53
2018-11-11T20:17:54.496Z,36.34
2018-11-11T20:23:49.579Z,30.84
2018-11-11T20:29:44.481Z,27.42
2018-11-11T20:35:39.556Z,27.38
2018-11-11T20:41:34.491Z,30.6
2018-11-11T20:47:29.499Z,26.79
2018-11-11T20:53:24.511Z,28.5
2018-11-11T20:59:19.518Z,30.27
2018-11-11T21:05:14.512Z,30.94
2018-11-11T21:11:09.561Z,32.66
2018-11-11T21:17:04.530Z,33.19
2018-11-11T21:22:59.538Z,30.86
2018-11-11T21:28:54.520Z,30.2
2018-11-11T21:34:49.560Z,30.61
2018-11-11T21:40:44.516Z,33.16
2018-11-11T21:46:39.541Z,32.34
2018-11-11T21:52:34.518Z,29.82
2018-11-11T21:58:29.552Z,24.53
2018-11-11T22:04:24.571Z,23.61
2018-11-11T22:10:19.587Z,24.42
2018-11-11T22:16:14.547Z,18.23
2018-11-11T22:22:09.622Z,20.01
2018-11-11T22:28:04.607Z,17.59
2018-11-11T22:33:59.632Z,18.43
2018-11-11T22:39:54.580Z,17.77
2018-11-11T22:45:49.562Z,15.87
2018-11-11T22:51:44.619Z,15.54
2018-11-11T22:57:39.555Z,15.04
2018-11-11T23:03:34.561Z,15.57
2018-11-11T23:09:29.586Z,15.53
2018-11-11T23:15:24.580Z,14.65
2018-11-11T23:21:19.606Z,14.32
2018-11-11T23:27:14.614Z,14.99
2018-11-11T23:33:09.591Z,15.94
2018-11-11T23:39:04.592Z,18.82
2018-11-11T23:44:59.594Z,17.28
2018-11-11T23:50:54.608Z,16.74
2018-11-11T23:56:49.592Z,15.95
